sensor_id;sensor_type;location;lat;lon;timestamp;P1;durP1;ratioP1;P2;durP2;ratioP2
52776;SDS011;38656;54.260;20.822;2023-07-13T00:01:29;28.25;;;25.40;;
52776;SDS011;38656;54.260;20.822;2023-07-13T00:03:56;28.23;;;22.70;;
52776;SDS011;38656;54.260;20.822;2023-07-13T00:06:23;26.23;;;23.63;;
52776;SDS011;38656;54.260;20.822;2023-07-13T00:08:49;28.33;;;25.58;;
52776;SDS011;38656;54.260;20.822;2023-07-13T00:11:16;34.45;;;26.08;;
52776;SDS011;38656;54.260;20.822;2023-07-13T00:13:42;25.92;;;23.50;;
52776;SDS011;38656;54.260;20.822;2023-07-13T00:16:09;26.85;;;24.15;;
52776;SDS011;38656;54.260;20.822;2023-07-13T00:18:36;27.20;;;24.33;;
52776;SDS011;38656;54.260;20.822;2023-07-13T00:21:03;28.45;;;25.65;;
52776;SDS011;38656;54.260;20.822;2023-07-13T00:23:36;34.30;;;23.20;;
52776;SDS011;38656;54.260;20.822;2023-07-13T00:26:05;27.60;;;24.80;;
52776;SDS011;38656;54.260;20.822;2023-07-13T00:28:34;26.60;;;23.77;;
52776;SDS011;38656;54.260;20.822;2023-07-13T00:31:00;23.65;;;20.45;;
52776;SDS011;38656;54.260;20.822;2023-07-13T00:33:28;23.05;;;20.67;;
52776;SDS011;38656;54.260;20.822;2023-07-13T00:35:54;20.10;;;18.30;;
52776;SDS011;38656;54.260;20.822;2023-07-13T00:38:21;20.25;;;18.17;;
52776;SDS011;38656;54.260;20.822;2023-07-13T00:40:48;17.67;;;15.88;;
52776;SDS011;38656;54.260;20.822;2023-07-13T00:43:16;17.73;;;15.88;;
52776;SDS011;38656;54.260;20.822;2023-07-13T00:48:11;16.88;;;14.73;;
52776;SDS011;38656;54.260;20.822;2023-07-13T00:50:42;19.60;;;13.13;;
52776;SDS011;38656;54.260;20.822;2023-07-13T00:53:11;17.27;;;13.30;;
52776;SDS011;38656;54.260;20.822;2023-07-13T00:55:38;12.00;;;10.93;;
52776;SDS011;38656;54.260;20.822;2023-07-13T00:58:05;19.77;;;13.18;;
52776;SDS011;38656;54.260;20.822;2023-07-13T01:00:32;22.50;;;12.77;;
52776;SDS011;38656;54.260;20.822;2023-07-13T01:03:01;17.55;;;12.18;;
52776;SDS011;38656;54.260;20.822;2023-07-13T01:05:29;13.02;;;11.80;;
52776;SDS011;38656;54.260;20.822;2023-07-13T01:07:57;14.15;;;12.85;;
52776;SDS011;38656;54.260;20.822;2023-07-13T01:10:26;16.60;;;11.77;;
52776;SDS011;38656;54.260;20.822;2023-07-13T01:12:53;12.15;;;10.95;;
52776;SDS011;38656;54.260;20.822;2023-07-13T01:18:20;13.02;;;11.02;;
52776;SDS011;38656;54.260;20.822;2023-07-13T01:21:03;13.27;;;11.80;;
52776;SDS011;38656;54.260;20.822;2023-07-13T01:23:30;12.90;;;10.90;;
52776;SDS011;38656;54.260;20.822;2023-07-13T01:25:57;17.23;;;12.70;;
52776;SDS011;38656;54.260;20.822;2023-07-13T01:28:24;15.18;;;11.32;;
52776;SDS011;38656;54.260;20.822;2023-07-13T01:30:53;13.13;;;11.75;;
52776;SDS011;38656;54.260;20.822;2023-07-13T01:33:21;14.20;;;12.75;;
52776;SDS011;38656;54.260;20.822;2023-07-13T01:35:48;14.15;;;12.85;;
52776;SDS011;38656;54.260;20.822;2023-07-13T01:38:14;13.32;;;11.90;;
52776;SDS011;38656;54.260;20.822;2023-07-13T01:40:44;18.60;;;11.82;;
52776;SDS011;38656;54.260;20.822;2023-07-13T01:43:11;17.60;;;12.45;;
52776;SDS011;38656;54.260;20.822;2023-07-13T01:45:38;19.95;;;11.80;;
52776;SDS011;38656;54.260;20.822;2023-07-13T01:48:04;15.65;;;11.38;;
52776;SDS011;38656;54.260;20.822;2023-07-13T01:50:33;16.42;;;12.05;;
52776;SDS011;38656;54.260;20.822;2023-07-13T01:53:00;25.67;;;12.10;;
52776;SDS011;38656;54.260;20.822;2023-07-13T01:55:27;14.75;;;12.93;;
52776;SDS011;38656;54.260;20.822;2023-07-13T01:57:53;16.00;;;11.90;;
52776;SDS011;38656;54.260;20.822;2023-07-13T02:00:20;18.52;;;12.18;;
52776;SDS011;38656;54.260;20.822;2023-07-13T02:02:47;13.98;;;10.93;;
52776;SDS011;38656;54.260;20.822;2023-07-13T02:05:13;16.40;;;11.93;;
52776;SDS011;38656;54.260;20.822;2023-07-13T02:07:40;13.75;;;11.23;;
52776;SDS011;38656;54.260;20.822;2023-07-13T02:10:07;22.10;;;12.02;;
52776;SDS011;38656;54.260;20.822;2023-07-13T02:12:34;14.45;;;11.43;;
52776;SDS011;38656;54.260;20.822;2023-07-13T02:15:02;12.27;;;10.93;;
52776;SDS011;38656;54.260;20.822;2023-07-13T02:17:29;10.70;;;9.70;;
52776;SDS011;38656;54.260;20.822;2023-07-13T02:19:55;12.48;;;10.15;;
52776;SDS011;38656;54.260;20.822;2023-07-13T02:22:21;17.85;;;10.23;;
52776;SDS011;38656;54.260;20.822;2023-07-13T02:24:48;15.13;;;10.73;;
52776;SDS011;38656;54.260;20.822;2023-07-13T02:27:15;16.58;;;11.10;;
52776;SDS011;38656;54.260;20.822;2023-07-13T02:29:41;12.48;;;11.32;;
52776;SDS011;38656;54.260;20.822;2023-07-13T02:32:07;13.77;;;11.38;;
52776;SDS011;38656;54.260;20.822;2023-07-13T02:34:34;14.50;;;12.20;;
52776;SDS011;38656;54.260;20.822;2023-07-13T02:37:00;17.13;;;12.63;;
52776;SDS011;38656;54.260;20.822;2023-07-13T02:39:26;24.35;;;13.63;;
52776;SDS011;38656;54.260;20.822;2023-07-13T02:41:52;14.77;;;11.23;;
52776;SDS011;38656;54.260;20.822;2023-07-13T02:44:19;12.75;;;11.18;;
52776;SDS011;38656;54.260;20.822;2023-07-13T02:46:45;11.35;;;10.32;;
52776;SDS011;38656;54.260;20.822;2023-07-13T02:49:11;17.17;;;9.25;;
52776;SDS011;38656;54.260;20.822;2023-07-13T02:51:37;13.63;;;9.80;;
52776;SDS011;38656;54.260;20.822;2023-07-13T02:54:04;16.88;;;9.45;;
52776;SDS011;38656;54.260;20.822;2023-07-13T02:56:30;10.90;;;8.15;;
52776;SDS011;38656;54.260;20.822;2023-07-13T02:58:57;20.27;;;8.38;;
52776;SDS011;38656;54.260;20.822;2023-07-13T03:01:24;12.45;;;8.18;;
52776;SDS011;38656;54.260;20.822;2023-07-13T03:03:51;9.75;;;7.43;;
52776;SDS011;38656;54.260;20.822;2023-07-13T03:06:18;10.77;;;8.07;;
52776;SDS011;38656;54.260;20.822;2023-07-13T03:08:44;11.48;;;7.30;;
52776;SDS011;38656;54.260;20.822;2023-07-13T03:11:12;9.05;;;7.22;;
52776;SDS011;38656;54.260;20.822;2023-07-13T03:13:40;14.60;;;7.50;;
52776;SDS011;38656;54.260;20.822;2023-07-13T03:16:07;9.07;;;6.70;;
52776;SDS011;38656;54.260;20.822;2023-07-13T03:18:35;7.93;;;5.93;;
52776;SDS011;38656;54.260;20.822;2023-07-13T03:21:02;15.07;;;7.55;;
52776;SDS011;38656;54.260;20.822;2023-07-13T03:23:29;8.85;;;6.65;;
52776;SDS011;38656;54.260;20.822;2023-07-13T03:28:28;21.08;;;8.48;;
52776;SDS011;38656;54.260;20.822;2023-07-13T03:31:05;13.70;;;8.02;;
52776;SDS011;38656;54.260;20.822;2023-07-13T03:33:34;23.27;;;7.82;;
52776;SDS011;38656;54.260;20.822;2023-07-13T03:36:00;8.77;;;7.00;;
52776;SDS011;38656;54.260;20.822;2023-07-13T03:38:33;10.35;;;6.75;;
52776;SDS011;38656;54.260;20.822;2023-07-13T03:40:59;11.55;;;6.30;;
52776;SDS011;38656;54.260;20.822;2023-07-13T03:43:26;11.73;;;7.22;;
52776;SDS011;38656;54.260;20.822;2023-07-13T03:45:52;10.05;;;6.25;;
52776;SDS011;38656;54.260;20.822;2023-07-13T03:48:18;17.55;;;8.02;;
52776;SDS011;38656;54.260;20.822;2023-07-13T03:50:44;17.08;;;6.80;;
52776;SDS011;38656;54.260;20.822;2023-07-13T03:53:11;11.30;;;5.68;;
52776;SDS011;38656;54.260;20.822;2023-07-13T03:55:38;17.95;;;6.93;;
52776;SDS011;38656;54.260;20.822;2023-07-13T04:00:55;13.98;;;7.30;;
52776;SDS011;38656;54.260;20.822;2023-07-13T04:03:22;13.68;;;6.35;;
52776;SDS011;38656;54.260;20.822;2023-07-13T04:05:49;11.27;;;6.18;;
52776;SDS011;38656;54.260;20.822;2023-07-13T04:08:15;11.82;;;5.53;;
52776;SDS011;38656;54.260;20.822;2023-07-13T04:10:42;7.82;;;5.82;;
52776;SDS011;38656;54.260;20.822;2023-07-13T04:13:08;18.63;;;6.72;;
52776;SDS011;38656;54.260;20.822;2023-07-13T04:15:35;12.52;;;6.85;;
52776;SDS011;38656;54.260;20.822;2023-07-13T04:18:01;9.95;;;5.30;;
52776;SDS011;38656;54.260;20.822;2023-07-13T04:20:28;8.18;;;5.82;;
52776;SDS011;38656;54.260;20.822;2023-07-13T04:22:55;9.13;;;5.78;;
52776;SDS011;38656;54.260;20.822;2023-07-13T04:25:22;9.85;;;5.63;;
52776;SDS011;38656;54.260;20.822;2023-07-13T04:27:49;10.32;;;6.18;;
52776;SDS011;38656;54.260;20.822;2023-07-13T04:30:15;11.55;;;5.85;;
52776;SDS011;38656;54.260;20.822;2023-07-13T04:32:41;14.80;;;6.10;;
52776;SDS011;38656;54.260;20.822;2023-07-13T04:35:08;11.10;;;5.82;;
52776;SDS011;38656;54.260;20.822;2023-07-13T04:37:34;15.90;;;5.88;;
52776;SDS011;38656;54.260;20.822;2023-07-13T04:40:00;13.77;;;6.32;;
52776;SDS011;38656;54.260;20.822;2023-07-13T04:42:28;11.25;;;6.43;;
52776;SDS011;38656;54.260;20.822;2023-07-13T04:45:00;12.50;;;7.40;;
52776;SDS011;38656;54.260;20.822;2023-07-13T04:47:29;21.88;;;6.43;;
52776;SDS011;38656;54.260;20.822;2023-07-13T04:49:56;12.63;;;6.45;;
52776;SDS011;38656;54.260;20.822;2023-07-13T04:52:22;10.18;;;5.53;;
52776;SDS011;38656;54.260;20.822;2023-07-13T04:54:49;11.98;;;6.53;;
52776;SDS011;38656;54.260;20.822;2023-07-13T04:57:15;11.70;;;5.80;;
52776;SDS011;38656;54.260;20.822;2023-07-13T04:59:41;9.18;;;5.32;;
52776;SDS011;38656;54.260;20.822;2023-07-13T05:02:08;11.10;;;5.47;;
52776;SDS011;38656;54.260;20.822;2023-07-13T05:04:34;10.05;;;5.30;;
52776;SDS011;38656;54.260;20.822;2023-07-13T05:07:00;9.45;;;4.75;;
52776;SDS011;38656;54.260;20.822;2023-07-13T05:09:26;9.65;;;4.35;;
52776;SDS011;38656;54.260;20.822;2023-07-13T05:11:52;6.28;;;4.13;;
52776;SDS011;38656;54.260;20.822;2023-07-13T05:14:18;8.77;;;4.43;;
52776;SDS011;38656;54.260;20.822;2023-07-13T05:16:45;6.93;;;4.30;;
52776;SDS011;38656;54.260;20.822;2023-07-13T05:19:11;14.18;;;4.35;;
52776;SDS011;38656;54.260;20.822;2023-07-13T05:21:37;8.65;;;4.35;;
52776;SDS011;38656;54.260;20.822;2023-07-13T05:24:04;16.30;;;5.88;;
52776;SDS011;38656;54.260;20.822;2023-07-13T05:26:30;8.85;;;4.50;;
52776;SDS011;38656;54.260;20.822;2023-07-13T05:28:57;17.63;;;4.78;;
52776;SDS011;38656;54.260;20.822;2023-07-13T05:31:23;10.93;;;4.40;;
52776;SDS011;38656;54.260;20.822;2023-07-13T05:33:49;10.23;;;4.35;;
52776;SDS011;38656;54.260;20.822;2023-07-13T05:36:15;12.77;;;4.57;;
52776;SDS011;38656;54.260;20.822;2023-07-13T05:38:42;9.63;;;4.32;;
52776;SDS011;38656;54.260;20.822;2023-07-13T05:41:08;5.63;;;3.70;;
52776;SDS011;38656;54.260;20.822;2023-07-13T05:43:34;10.43;;;4.47;;
52776;SDS011;38656;54.260;20.822;2023-07-13T05:46:00;9.63;;;3.45;;
52776;SDS011;38656;54.260;20.822;2023-07-13T05:48:27;5.63;;;3.67;;
52776;SDS011;38656;54.260;20.822;2023-07-13T05:50:54;6.68;;;3.83;;
52776;SDS011;38656;54.260;20.822;2023-07-13T05:53:20;6.07;;;3.03;;
52776;SDS011;38656;54.260;20.822;2023-07-13T05:55:46;9.32;;;4.38;;
52776;SDS011;38656;54.260;20.822;2023-07-13T05:58:15;8.07;;;3.88;;
52776;SDS011;38656;54.260;20.822;2023-07-13T06:00:42;9.02;;;3.83;;
52776;SDS011;38656;54.260;20.822;2023-07-13T06:03:08;8.07;;;3.40;;
52776;SDS011;38656;54.260;20.822;2023-07-13T06:05:38;7.32;;;3.22;;
52776;SDS011;38656;54.260;20.822;2023-07-13T06:08:05;13.48;;;4.50;;
52776;SDS011;38656;54.260;20.822;2023-07-13T06:10:32;7.47;;;3.55;;
52776;SDS011;38656;54.260;20.822;2023-07-13T06:12:59;7.10;;;3.30;;
52776;SDS011;38656;54.260;20.822;2023-07-13T06:15:26;8.82;;;4.07;;
52776;SDS011;38656;54.260;20.822;2023-07-13T06:18:01;11.65;;;3.83;;
52776;SDS011;38656;54.260;20.822;2023-07-13T06:20:27;7.72;;;3.58;;
52776;SDS011;38656;54.260;20.822;2023-07-13T06:22:54;9.10;;;4.03;;
52776;SDS011;38656;54.260;20.822;2023-07-13T06:25:20;7.55;;;2.83;;
52776;SDS011;38656;54.260;20.822;2023-07-13T06:27:46;6.13;;;3.63;;
52776;SDS011;38656;54.260;20.822;2023-07-13T06:30:12;7.07;;;3.72;;
52776;SDS011;38656;54.260;20.822;2023-07-13T06:32:39;6.95;;;3.28;;
52776;SDS011;38656;54.260;20.822;2023-07-13T06:35:05;5.13;;;3.08;;
52776;SDS011;38656;54.260;20.822;2023-07-13T06:37:32;5.63;;;2.72;;
52776;SDS011;38656;54.260;20.822;2023-07-13T06:39:58;5.38;;;3.22;;
52776;SDS011;38656;54.260;20.822;2023-07-13T06:42:24;7.25;;;3.33;;
52776;SDS011;38656;54.260;20.822;2023-07-13T06:44:50;6.95;;;2.85;;
52776;SDS011;38656;54.260;20.822;2023-07-13T06:47:16;7.30;;;3.03;;
52776;SDS011;38656;54.260;20.822;2023-07-13T06:49:43;8.52;;;3.22;;
52776;SDS011;38656;54.260;20.822;2023-07-13T06:52:09;7.25;;;4.22;;
52776;SDS011;38656;54.260;20.822;2023-07-13T06:54:35;7.97;;;3.20;;
52776;SDS011;38656;54.260;20.822;2023-07-13T06:57:01;5.35;;;2.83;;
52776;SDS011;38656;54.260;20.822;2023-07-13T06:59:27;9.75;;;3.08;;
52776;SDS011;38656;54.260;20.822;2023-07-13T07:01:53;4.05;;;2.22;;
52776;SDS011;38656;54.260;20.822;2023-07-13T07:04:20;11.05;;;2.80;;
52776;SDS011;38656;54.260;20.822;2023-07-13T07:06:47;4.85;;;2.50;;
52776;SDS011;38656;54.260;20.822;2023-07-13T07:09:13;10.88;;;3.65;;
52776;SDS011;38656;54.260;20.822;2023-07-13T07:11:41;7.80;;;2.45;;
52776;SDS011;38656;54.260;20.822;2023-07-13T07:14:07;4.45;;;2.17;;
52776;SDS011;38656;54.260;20.822;2023-07-13T07:16:33;6.25;;;2.42;;
52776;SDS011;38656;54.260;20.822;2023-07-13T07:18:59;4.65;;;2.20;;
52776;SDS011;38656;54.260;20.822;2023-07-13T07:21:26;4.00;;;2.20;;
52776;SDS011;38656;54.260;20.822;2023-07-13T07:23:52;5.60;;;2.35;;
52776;SDS011;38656;54.260;20.822;2023-07-13T07:26:18;6.68;;;2.53;;
52776;SDS011;38656;54.260;20.822;2023-07-13T07:28:45;5.53;;;2.22;;
52776;SDS011;38656;54.260;20.822;2023-07-13T07:31:11;3.33;;;1.92;;
52776;SDS011;38656;54.260;20.822;2023-07-13T07:33:38;7.95;;;2.28;;
52776;SDS011;38656;54.260;20.822;2023-07-13T07:36:04;4.00;;;1.98;;
52776;SDS011;38656;54.260;20.822;2023-07-13T07:38:30;11.63;;;2.75;;
52776;SDS011;38656;54.260;20.822;2023-07-13T07:40:56;8.35;;;2.30;;
52776;SDS011;38656;54.260;20.822;2023-07-13T07:43:24;11.18;;;3.00;;
52776;SDS011;38656;54.260;20.822;2023-07-13T07:45:50;7.30;;;3.15;;
52776;SDS011;38656;54.260;20.822;2023-07-13T07:48:16;10.75;;;2.85;;
52776;SDS011;38656;54.260;20.822;2023-07-13T07:50:42;5.45;;;2.17;;
52776;SDS011;38656;54.260;20.822;2023-07-13T07:53:11;6.18;;;2.42;;
52776;SDS011;38656;54.260;20.822;2023-07-13T07:55:37;5.65;;;2.28;;
52776;SDS011;38656;54.260;20.822;2023-07-13T07:58:04;6.88;;;2.13;;
52776;SDS011;38656;54.260;20.822;2023-07-13T08:00:31;7.80;;;2.20;;
52776;SDS011;38656;54.260;20.822;2023-07-13T08:02:58;6.30;;;2.17;;
52776;SDS011;38656;54.260;20.822;2023-07-13T08:05:24;10.10;;;2.40;;
52776;SDS011;38656;54.260;20.822;2023-07-13T08:07:51;5.88;;;2.83;;
52776;SDS011;38656;54.260;20.822;2023-07-13T08:10:17;9.43;;;2.50;;
52776;SDS011;38656;54.260;20.822;2023-07-13T08:12:43;5.70;;;1.90;;
52776;SDS011;38656;54.260;20.822;2023-07-13T08:15:11;5.72;;;2.05;;
52776;SDS011;38656;54.260;20.822;2023-07-13T08:17:39;4.68;;;2.28;;
52776;SDS011;38656;54.260;20.822;2023-07-13T08:20:05;7.53;;;3.60;;
52776;SDS011;38656;54.260;20.822;2023-07-13T08:22:34;10.45;;;2.63;;
52776;SDS011;38656;54.260;20.822;2023-07-13T08:25:00;5.28;;;2.00;;
52776;SDS011;38656;54.260;20.822;2023-07-13T08:27:27;5.05;;;2.20;;
52776;SDS011;38656;54.260;20.822;2023-07-13T08:29:54;9.48;;;2.10;;
52776;SDS011;38656;54.260;20.822;2023-07-13T08:32:21;5.88;;;1.90;;
52776;SDS011;38656;54.260;20.822;2023-07-13T08:34:48;5.55;;;2.00;;
52776;SDS011;38656;54.260;20.822;2023-07-13T08:37:28;5.22;;;2.05;;
52776;SDS011;38656;54.260;20.822;2023-07-13T08:39:54;5.05;;;2.17;;
52776;SDS011;38656;54.260;20.822;2023-07-13T08:42:37;4.45;;;1.88;;
52776;SDS011;38656;54.260;20.822;2023-07-13T08:45:13;6.85;;;1.80;;
52776;SDS011;38656;54.260;20.822;2023-07-13T08:47:58;6.30;;;2.53;;
52776;SDS011;38656;54.260;20.822;2023-07-13T08:50:39;6.35;;;1.95;;
52776;SDS011;38656;54.260;20.822;2023-07-13T08:53:16;3.47;;;1.80;;
52776;SDS011;38656;54.260;20.822;2023-07-13T08:55:43;4.50;;;1.73;;
52776;SDS011;38656;54.260;20.822;2023-07-13T08:58:14;7.32;;;1.95;;
52776;SDS011;38656;54.260;20.822;2023-07-13T09:00:52;5.35;;;2.00;;
52776;SDS011;38656;54.260;20.822;2023-07-13T09:03:42;4.68;;;1.75;;
52776;SDS011;38656;54.260;20.822;2023-07-13T09:06:40;5.60;;;2.28;;
52776;SDS011;38656;54.260;20.822;2023-07-13T09:12:34;3.95;;;1.95;;
52776;SDS011;38656;54.260;20.822;2023-07-13T09:17:14;3.35;;;1.50;;
52776;SDS011;38656;54.260;20.822;2023-07-13T09:19:50;4.60;;;1.88;;
52776;SDS011;38656;54.260;20.822;2023-07-13T09:22:29;4.00;;;1.98;;
52776;SDS011;38656;54.260;20.822;2023-07-13T09:25:05;4.75;;;1.92;;
52776;SDS011;38656;54.260;20.822;2023-07-13T09:27:52;3.55;;;1.38;;
52776;SDS011;38656;54.260;20.822;2023-07-13T09:30:27;5.15;;;1.70;;
52776;SDS011;38656;54.260;20.822;2023-07-13T09:32:58;8.32;;;1.60;;
52776;SDS011;38656;54.260;20.822;2023-07-13T09:35:25;2.92;;;1.60;;
52776;SDS011;38656;54.260;20.822;2023-07-13T09:37:57;5.78;;;2.03;;
52776;SDS011;38656;54.260;20.822;2023-07-13T09:40:30;4.30;;;2.20;;
52776;SDS011;38656;54.260;20.822;2023-07-13T09:43:13;6.68;;;1.92;;
52776;SDS011;38656;54.260;20.822;2023-07-13T09:45:45;4.30;;;1.65;;
52776;SDS011;38656;54.260;20.822;2023-07-13T09:48:13;6.00;;;2.10;;
52776;SDS011;38656;54.260;20.822;2023-07-13T09:50:41;4.60;;;1.67;;
52776;SDS011;38656;54.260;20.822;2023-07-13T09:53:12;3.88;;;2.10;;
52776;SDS011;38656;54.260;20.822;2023-07-13T09:55:40;4.20;;;2.15;;
52776;SDS011;38656;54.260;20.822;2023-07-13T10:00:37;5.95;;;1.55;;
52776;SDS011;38656;54.260;20.822;2023-07-13T10:03:22;4.45;;;1.73;;
52776;SDS011;38656;54.260;20.822;2023-07-13T10:05:53;4.65;;;1.40;;
52776;SDS011;38656;54.260;20.822;2023-07-13T10:08:26;3.72;;;1.65;;
52776;SDS011;38656;54.260;20.822;2023-07-13T10:10:59;4.97;;;1.35;;
52776;SDS011;38656;54.260;20.822;2023-07-13T10:13:35;4.20;;;1.50;;
52776;SDS011;38656;54.260;20.822;2023-07-13T10:16:06;9.68;;;1.90;;
52776;SDS011;38656;54.260;20.822;2023-07-13T10:18:42;3.85;;;1.40;;
52776;SDS011;38656;54.260;20.822;2023-07-13T10:21:19;3.45;;;1.33;;
52776;SDS011;38656;54.260;20.822;2023-07-13T10:23:47;4.45;;;1.40;;
52776;SDS011;38656;54.260;20.822;2023-07-13T10:26:29;3.92;;;1.50;;
52776;SDS011;38656;54.260;20.822;2023-07-13T10:28:59;4.63;;;1.70;;
52776;SDS011;38656;54.260;20.822;2023-07-13T10:31:32;3.63;;;1.77;;
52776;SDS011;38656;54.260;20.822;2023-07-13T10:34:08;3.15;;;1.65;;
52776;SDS011;38656;54.260;20.822;2023-07-13T10:36:45;3.85;;;1.40;;
52776;SDS011;38656;54.260;20.822;2023-07-13T10:39:23;2.53;;;1.40;;
52776;SDS011;38656;54.260;20.822;2023-07-13T10:41:53;2.05;;;1.13;;
52776;SDS011;38656;54.260;20.822;2023-07-13T10:44:27;2.10;;;1.48;;
52776;SDS011;38656;54.260;20.822;2023-07-13T10:46:59;2.88;;;1.48;;
52776;SDS011;38656;54.260;20.822;2023-07-13T10:49:31;4.28;;;1.10;;
52776;SDS011;38656;54.260;20.822;2023-07-13T10:52:00;2.72;;;1.40;;
52776;SDS011;38656;54.260;20.822;2023-07-13T10:54:28;4.97;;;1.50;;
52776;SDS011;38656;54.260;20.822;2023-07-13T10:57:16;2.60;;;1.27;;
52776;SDS011;38656;54.260;20.822;2023-07-13T11:00:29;6.70;;;1.30;;
52776;SDS011;38656;54.260;20.822;2023-07-13T11:02:40;2.10;;;1.23;;
52776;SDS011;38656;54.260;20.822;2023-07-13T11:05:14;2.97;;;1.35;;
52776;SDS011;38656;54.260;20.822;2023-07-13T11:07:55;2.47;;;0.85;;
52776;SDS011;38656;54.260;20.822;2023-07-13T11:10:47;3.65;;;1.15;;
52776;SDS011;38656;54.260;20.822;2023-07-13T11:18:52;3.80;;;1.20;;
52776;SDS011;38656;54.260;20.822;2023-07-13T11:21:33;3.00;;;1.63;;
52776;SDS011;38656;54.260;20.822;2023-07-13T11:31:43;2.17;;;1.10;;
52776;SDS011;38656;54.260;20.822;2023-07-13T11:34:21;3.17;;;1.13;;
52776;SDS011;38656;54.260;20.822;2023-07-13T11:36:50;3.80;;;1.83;;
52776;SDS011;38656;54.260;20.822;2023-07-13T11:41:53;2.92;;;1.30;;
52776;SDS011;38656;54.260;20.822;2023-07-13T11:44:23;2.33;;;1.25;;
52776;SDS011;38656;54.260;20.822;2023-07-13T11:46:52;2.60;;;1.02;;
52776;SDS011;38656;54.260;20.822;2023-07-13T11:49:20;2.40;;;1.25;;
52776;SDS011;38656;54.260;20.822;2023-07-13T11:51:48;1.95;;;1.00;;
52776;SDS011;38656;54.260;20.822;2023-07-13T11:54:32;2.30;;;1.35;;
52776;SDS011;38656;54.260;20.822;2023-07-13T11:59:48;1.52;;;0.80;;
52776;SDS011;38656;54.260;20.822;2023-07-13T12:02:33;2.97;;;1.30;;
52776;SDS011;38656;54.260;20.822;2023-07-13T12:05:04;2.60;;;0.90;;
52776;SDS011;38656;54.260;20.822;2023-07-13T12:07:32;2.28;;;1.08;;
52776;SDS011;38656;54.260;20.822;2023-07-13T12:12:37;5.60;;;1.42;;
52776;SDS011;38656;54.260;20.822;2023-07-13T12:15:10;3.25;;;1.30;;
52776;SDS011;38656;54.260;20.822;2023-07-13T12:17:37;5.93;;;1.25;;
52776;SDS011;38656;54.260;20.822;2023-07-13T12:20:11;1.38;;;1.00;;
52776;SDS011;38656;54.260;20.822;2023-07-13T12:22:49;2.10;;;1.02;;
52776;SDS011;38656;54.260;20.822;2023-07-13T12:25:16;3.03;;;1.45;;
52776;SDS011;38656;54.260;20.822;2023-07-13T12:27:46;2.15;;;0.70;;
52776;SDS011;38656;54.260;20.822;2023-07-13T12:30:28;1.45;;;0.95;;
52776;SDS011;38656;54.260;20.822;2023-07-13T12:33:10;3.45;;;1.38;;
52776;SDS011;38656;54.260;20.822;2023-07-13T12:35:42;2.92;;;1.30;;
52776;SDS011;38656;54.260;20.822;2023-07-13T12:38:14;2.97;;;0.90;;
52776;SDS011;38656;54.260;20.822;2023-07-13T12:40:42;1.70;;;1.17;;
52776;SDS011;38656;54.260;20.822;2023-07-13T12:43:12;2.17;;;1.05;;
52776;SDS011;38656;54.260;20.822;2023-07-13T12:45:39;2.38;;;1.15;;
52776;SDS011;38656;54.260;20.822;2023-07-13T12:48:24;2.33;;;1.20;;
52776;SDS011;38656;54.260;20.822;2023-07-13T12:50:51;5.90;;;1.13;;
52776;SDS011;38656;54.260;20.822;2023-07-13T12:53:21;2.42;;;1.35;;
52776;SDS011;38656;54.260;20.822;2023-07-13T12:55:49;3.25;;;1.10;;
52776;SDS011;38656;54.260;20.822;2023-07-13T12:58:28;2.47;;;1.00;;
52776;SDS011;38656;54.260;20.822;2023-07-13T13:00:58;4.03;;;1.52;;
52776;SDS011;38656;54.260;20.822;2023-07-13T13:06:01;5.18;;;0.93;;
52776;SDS011;38656;54.260;20.822;2023-07-13T13:08:45;2.65;;;1.10;;
52776;SDS011;38656;54.260;20.822;2023-07-13T13:11:14;3.85;;;0.95;;
52776;SDS011;38656;54.260;20.822;2023-07-13T13:13:41;3.00;;;1.00;;
52776;SDS011;38656;54.260;20.822;2023-07-13T13:16:19;3.35;;;1.48;;
52776;SDS011;38656;54.260;20.822;2023-07-13T13:21:19;2.97;;;1.20;;
52776;SDS011;38656;54.260;20.822;2023-07-13T13:23:46;3.92;;;0.90;;
52776;SDS011;38656;54.260;20.822;2023-07-13T13:26:13;1.55;;;0.90;;
52776;SDS011;38656;54.260;20.822;2023-07-13T13:28:43;2.13;;;1.30;;
52776;SDS011;38656;54.260;20.822;2023-07-13T13:31:11;3.42;;;1.17;;
52776;SDS011;38656;54.260;20.822;2023-07-13T13:33:43;1.40;;;0.93;;
52776;SDS011;38656;54.260;20.822;2023-07-13T13:36:17;2.65;;;0.73;;
52776;SDS011;38656;54.260;20.822;2023-07-13T13:38:45;8.65;;;1.48;;
52776;SDS011;38656;54.260;20.822;2023-07-13T13:41:13;1.27;;;0.73;;
52776;SDS011;38656;54.260;20.822;2023-07-13T13:43:40;2.45;;;1.15;;
52776;SDS011;38656;54.260;20.822;2023-07-13T13:46:12;2.17;;;0.82;;
52776;SDS011;38656;54.260;20.822;2023-07-13T13:48:43;1.35;;;1.13;;
52776;SDS011;38656;54.260;20.822;2023-07-13T13:51:17;2.58;;;1.23;;
52776;SDS011;38656;54.260;20.822;2023-07-13T13:53:46;2.17;;;1.10;;
52776;SDS011;38656;54.260;20.822;2023-07-13T13:56:13;4.80;;;2.20;;
52776;SDS011;38656;54.260;20.822;2023-07-13T13:58:40;3.35;;;1.20;;
52776;SDS011;38656;54.260;20.822;2023-07-13T14:01:14;2.03;;;0.93;;
52776;SDS011;38656;54.260;20.822;2023-07-13T14:03:44;1.55;;;0.95;;
52776;SDS011;38656;54.260;20.822;2023-07-13T14:06:14;1.95;;;1.13;;
52776;SDS011;38656;54.260;20.822;2023-07-13T14:08:41;4.40;;;0.98;;
52776;SDS011;38656;54.260;20.822;2023-07-13T14:11:11;2.58;;;0.80;;
52776;SDS011;38656;54.260;20.822;2023-07-13T14:14:00;1.30;;;1.20;;
52776;SDS011;38656;54.260;20.822;2023-07-13T14:16:28;2.50;;;1.20;;
52776;SDS011;38656;54.260;20.822;2023-07-13T14:18:57;4.00;;;1.17;;
52776;SDS011;38656;54.260;20.822;2023-07-13T14:21:25;2.08;;;1.02;;
52776;SDS011;38656;54.260;20.822;2023-07-13T14:23:53;3.42;;;1.83;;
52776;SDS011;38656;54.260;20.822;2023-07-13T14:26:20;1.23;;;0.90;;
52776;SDS011;38656;54.260;20.822;2023-07-13T14:28:55;1.67;;;0.88;;
52776;SDS011;38656;54.260;20.822;2023-07-13T14:31:23;4.45;;;1.40;;
52776;SDS011;38656;54.260;20.822;2023-07-13T14:33:50;1.70;;;1.15;;
52776;SDS011;38656;54.260;20.822;2023-07-13T14:38:48;4.95;;;0.85;;
52776;SDS011;38656;54.260;20.822;2023-07-13T14:41:15;4.40;;;0.70;;
52776;SDS011;38656;54.260;20.822;2023-07-13T14:43:41;2.40;;;1.05;;
52776;SDS011;38656;54.260;20.822;2023-07-13T14:46:09;1.58;;;0.80;;
52776;SDS011;38656;54.260;20.822;2023-07-13T14:49:30;2.08;;;1.13;;
52776;SDS011;38656;54.260;20.822;2023-07-13T14:51:55;1.90;;;1.00;;
52776;SDS011;38656;54.260;20.822;2023-07-13T14:54:23;3.22;;;0.70;;
52776;SDS011;38656;54.260;20.822;2023-07-13T14:56:49;3.33;;;1.15;;
52776;SDS011;38656;54.260;20.822;2023-07-13T14:59:16;1.48;;;0.90;;
52776;SDS011;38656;54.260;20.822;2023-07-13T15:01:44;4.35;;;1.13;;
52776;SDS011;38656;54.260;20.822;2023-07-13T15:04:12;2.58;;;0.80;;
52776;SDS011;38656;54.260;20.822;2023-07-13T15:09:40;2.05;;;0.80;;
52776;SDS011;38656;54.260;20.822;2023-07-13T15:12:07;1.92;;;0.98;;
52776;SDS011;38656;54.260;20.822;2023-07-13T15:14:33;2.72;;;1.10;;
52776;SDS011;38656;54.260;20.822;2023-07-13T15:16:59;2.15;;;0.70;;
52776;SDS011;38656;54.260;20.822;2023-07-13T15:19:26;1.10;;;0.50;;
52776;SDS011;38656;54.260;20.822;2023-07-13T15:21:55;3.83;;;1.02;;
52776;SDS011;38656;54.260;20.822;2023-07-13T15:24:25;5.60;;;1.27;;
52776;SDS011;38656;54.260;20.822;2023-07-13T15:26:51;5.10;;;0.88;;
52776;SDS011;38656;54.260;20.822;2023-07-13T15:29:17;1.83;;;0.90;;
52776;SDS011;38656;54.260;20.822;2023-07-13T15:31:43;1.13;;;1.00;;